sensor_id;sensor_type;location;lat;lon;timestamp;P1;durP1;ratioP1;P2;durP2;ratioP2
6580;SDS011;3324;50.796;7.228;2023-04-30T00:01:55;0.30;;;0.30;;
6580;SDS011;3324;50.796;7.228;2023-04-30T00:04:20;0.30;;;0.30;;
6580;SDS011;3324;50.796;7.228;2023-04-30T00:06:46;2.20;;;0.70;;
6580;SDS011;3324;50.796;7.228;2023-04-30T00:09:11;0.40;;;0.40;;
6580;SDS011;3324;50.796;7.228;2023-04-30T00:11:37;0.30;;;0.30;;
6580;SDS011;3324;50.796;7.228;2023-04-30T00:14:03;0.30;;;0.30;;
6580;SDS011;3324;50.796;7.228;2023-04-30T00:16:28;2.10;;;0.70;;
6580;SDS011;3324;50.796;7.228;2023-04-30T00:18:54;0.30;;;0.30;;
6580;SDS011;3324;50.796;7.228;2023-04-30T00:21:19;0.30;;;0.30;;
6580;SDS011;3324;50.796;7.228;2023-04-30T00:23:45;0.30;;;0.30;;
6580;SDS011;3324;50.796;7.228;2023-04-30T00:26:11;2.10;;;0.70;;
6580;SDS011;3324;50.796;7.228;2023-04-30T00:28:36;0.30;;;0.30;;
6580;SDS011;3324;50.796;7.228;2023-04-30T00:31:02;0.40;;;0.40;;
6580;SDS011;3324;50.796;7.228;2023-04-30T00:33:30;2.10;;;0.80;;
6580;SDS011;3324;50.796;7.228;2023-04-30T00:35:56;2.00;;;0.70;;
6580;SDS011;3324;50.796;7.228;2023-04-30T00:38:22;0.40;;;0.40;;
6580;SDS011;3324;50.796;7.228;2023-04-30T00:40:48;0.40;;;0.40;;
6580;SDS011;3324;50.796;7.228;2023-04-30T00:43:14;0.40;;;0.40;;
6580;SDS011;3324;50.796;7.228;2023-04-30T00:45:39;0.40;;;0.40;;
6580;SDS011;3324;50.796;7.228;2023-04-30T00:48:05;2.10;;;0.70;;
6580;SDS011;3324;50.796;7.228;2023-04-30T00:50:31;0.40;;;0.40;;
6580;SDS011;3324;50.796;7.228;2023-04-30T00:52:59;0.40;;;0.40;;
6580;SDS011;3324;50.796;7.228;2023-04-30T00:55:25;0.40;;;0.40;;
6580;SDS011;3324;50.796;7.228;2023-04-30T00:57:51;0.40;;;0.40;;
6580;SDS011;3324;50.796;7.228;2023-04-30T01:00:17;2.10;;;0.70;;
6580;SDS011;3324;50.796;7.228;2023-04-30T01:02:43;2.10;;;0.80;;
6580;SDS011;3324;50.796;7.228;2023-04-30T01:05:10;2.10;;;0.70;;
6580;SDS011;3324;50.796;7.228;2023-04-30T01:07:35;2.10;;;0.70;;
6580;SDS011;3324;50.796;7.228;2023-04-30T01:10:03;0.30;;;0.30;;
6580;SDS011;3324;50.796;7.228;2023-04-30T01:12:36;0.30;;;0.30;;
6580;SDS011;3324;50.796;7.228;2023-04-30T01:17:53;0.30;;;0.30;;
6580;SDS011;3324;50.796;7.228;2023-04-30T01:20:23;2.10;;;0.70;;
6580;SDS011;3324;50.796;7.228;2023-04-30T01:28:45;2.10;;;0.60;;
6580;SDS011;3324;50.796;7.228;2023-04-30T01:31:14;2.10;;;0.70;;
6580;SDS011;3324;50.796;7.228;2023-04-30T01:33:43;0.30;;;0.20;;
6580;SDS011;3324;50.796;7.228;2023-04-30T01:47:38;0.30;;;0.20;;
6580;SDS011;3324;50.796;7.228;2023-04-30T01:55:29;0.30;;;0.20;;
6580;SDS011;3324;50.796;7.228;2023-04-30T01:58:05;0.30;;;0.20;;
6580;SDS011;3324;50.796;7.228;2023-04-30T02:00:34;0.30;;;0.20;;
6580;SDS011;3324;50.796;7.228;2023-04-30T02:03:00;0.30;;;0.20;;
6580;SDS011;3324;50.796;7.228;2023-04-30T02:05:25;0.30;;;0.20;;
6580;SDS011;3324;50.796;7.228;2023-04-30T02:07:51;2.00;;;0.60;;
6580;SDS011;3324;50.796;7.228;2023-04-30T02:10:19;2.20;;;0.50;;
6580;SDS011;3324;50.796;7.228;2023-04-30T02:12:46;0.30;;;0.20;;
6580;SDS011;3324;50.796;7.228;2023-04-30T02:15:12;0.30;;;0.20;;
6580;SDS011;3324;50.796;7.228;2023-04-30T02:17:37;0.30;;;0.20;;
6580;SDS011;3324;50.796;7.228;2023-04-30T02:20:03;0.30;;;0.20;;
6580;SDS011;3324;50.796;7.228;2023-04-30T02:22:29;0.30;;;0.20;;
6580;SDS011;3324;50.796;7.228;2023-04-30T02:24:55;2.10;;;0.60;;
6580;SDS011;3324;50.796;7.228;2023-04-30T02:27:21;2.10;;;0.60;;
6580;SDS011;3324;50.796;7.228;2023-04-30T02:29:48;2.10;;;0.50;;
6580;SDS011;3324;50.796;7.228;2023-04-30T02:32:14;2.10;;;0.60;;
6580;SDS011;3324;50.796;7.228;2023-04-30T02:34:40;2.10;;;0.60;;
6580;SDS011;3324;50.796;7.228;2023-04-30T02:37:06;2.10;;;0.50;;
6580;SDS011;3324;50.796;7.228;2023-04-30T02:39:32;0.30;;;0.20;;
6580;SDS011;3324;50.796;7.228;2023-04-30T02:41:58;0.30;;;0.20;;
6580;SDS011;3324;50.796;7.228;2023-04-30T02:44:24;0.30;;;0.20;;
6580;SDS011;3324;50.796;7.228;2023-04-30T02:46:50;0.30;;;0.20;;
6580;SDS011;3324;50.796;7.228;2023-04-30T02:49:15;0.30;;;0.20;;
6580;SDS011;3324;50.796;7.228;2023-04-30T02:51:41;2.10;;;0.50;;
6580;SDS011;3324;50.796;7.228;2023-04-30T02:54:07;2.10;;;0.50;;
6580;SDS011;3324;50.796;7.228;2023-04-30T02:56:32;0.30;;;0.20;;
6580;SDS011;3324;50.796;7.228;2023-04-30T02:58:58;0.30;;;0.20;;
6580;SDS011;3324;50.796;7.228;2023-04-30T03:01:24;0.30;;;0.20;;
6580;SDS011;3324;50.796;7.228;2023-04-30T03:03:50;0.30;;;0.20;;
6580;SDS011;3324;50.796;7.228;2023-04-30T03:06:16;0.30;;;0.20;;
6580;SDS011;3324;50.796;7.228;2023-04-30T03:08:41;2.10;;;0.50;;
6580;SDS011;3324;50.796;7.228;2023-04-30T03:11:07;0.30;;;0.10;;
6580;SDS011;3324;50.796;7.228;2023-04-30T03:13:32;0.30;;;0.10;;
6580;SDS011;3324;50.796;7.228;2023-04-30T03:15:58;0.30;;;0.20;;
6580;SDS011;3324;50.796;7.228;2023-04-30T03:18:25;0.30;;;0.20;;
6580;SDS011;3324;50.796;7.228;2023-04-30T03:20:51;0.30;;;0.20;;
6580;SDS011;3324;50.796;7.228;2023-04-30T03:23:17;0.30;;;0.20;;
6580;SDS011;3324;50.796;7.228;2023-04-30T03:25:42;2.10;;;0.50;;
6580;SDS011;3324;50.796;7.228;2023-04-30T03:28:08;0.30;;;0.20;;
6580;SDS011;3324;50.796;7.228;2023-04-30T03:30:33;0.30;;;0.20;;
6580;SDS011;3324;50.796;7.228;2023-04-30T03:32:59;0.30;;;0.20;;
6580;SDS011;3324;50.796;7.228;2023-04-30T03:35:25;2.10;;;0.50;;
6580;SDS011;3324;50.796;7.228;2023-04-30T03:37:51;2.10;;;0.50;;
6580;SDS011;3324;50.796;7.228;2023-04-30T03:40:17;2.20;;;0.50;;
6580;SDS011;3324;50.796;7.228;2023-04-30T03:42:43;0.30;;;0.20;;
6580;SDS011;3324;50.796;7.228;2023-04-30T03:45:09;0.30;;;0.20;;
6580;SDS011;3324;50.796;7.228;2023-04-30T03:47:34;0.30;;;0.20;;
6580;SDS011;3324;50.796;7.228;2023-04-30T03:50:01;0.30;;;0.20;;
6580;SDS011;3324;50.796;7.228;2023-04-30T03:52:27;0.30;;;0.20;;
6580;SDS011;3324;50.796;7.228;2023-04-30T03:54:53;0.30;;;0.20;;
6580;SDS011;3324;50.796;7.228;2023-04-30T03:57:19;0.30;;;0.10;;
6580;SDS011;3324;50.796;7.228;2023-04-30T03:59:45;0.30;;;0.20;;
6580;SDS011;3324;50.796;7.228;2023-04-30T04:02:11;0.30;;;0.20;;
6580;SDS011;3324;50.796;7.228;2023-04-30T04:04:36;2.10;;;0.50;;
6580;SDS011;3324;50.796;7.228;2023-04-30T04:07:02;0.30;;;0.20;;
6580;SDS011;3324;50.796;7.228;2023-04-30T04:09:28;0.30;;;0.20;;
6580;SDS011;3324;50.796;7.228;2023-04-30T04:11:54;0.30;;;0.20;;
6580;SDS011;3324;50.796;7.228;2023-04-30T04:14:20;0.30;;;0.10;;
6580;SDS011;3324;50.796;7.228;2023-04-30T04:16:45;0.30;;;0.20;;
6580;SDS011;3324;50.796;7.228;2023-04-30T04:19:11;2.10;;;0.50;;
6580;SDS011;3324;50.796;7.228;2023-04-30T04:21:37;0.30;;;0.20;;
6580;SDS011;3324;50.796;7.228;2023-04-30T04:24:03;0.30;;;0.10;;
6580;SDS011;3324;50.796;7.228;2023-04-30T04:26:33;0.30;;;0.20;;
6580;SDS011;3324;50.796;7.228;2023-04-30T04:29:00;0.30;;;0.20;;
6580;SDS011;3324;50.796;7.228;2023-04-30T04:31:26;0.30;;;0.20;;
6580;SDS011;3324;50.796;7.228;2023-04-30T04:33:52;0.30;;;0.20;;
6580;SDS011;3324;50.796;7.228;2023-04-30T04:36:22;0.30;;;0.20;;
6580;SDS011;3324;50.796;7.228;2023-04-30T04:38:51;0.30;;;0.10;;
6580;SDS011;3324;50.796;7.228;2023-04-30T04:41:17;0.30;;;0.20;;
6580;SDS011;3324;50.796;7.228;2023-04-30T04:43:43;0.30;;;0.10;;
6580;SDS011;3324;50.796;7.228;2023-04-30T04:46:09;2.10;;;0.50;;
6580;SDS011;3324;50.796;7.228;2023-04-30T04:48:35;2.10;;;0.50;;
6580;SDS011;3324;50.796;7.228;2023-04-30T04:51:01;0.30;;;0.20;;
6580;SDS011;3324;50.796;7.228;2023-04-30T04:53:26;0.30;;;0.10;;
6580;SDS011;3324;50.796;7.228;2023-04-30T04:55:52;0.30;;;0.20;;
6580;SDS011;3324;50.796;7.228;2023-04-30T04:58:17;0.30;;;0.10;;
6580;SDS011;3324;50.796;7.228;2023-04-30T05:00:43;2.10;;;0.50;;
6580;SDS011;3324;50.796;7.228;2023-04-30T05:03:09;0.30;;;0.20;;
6580;SDS011;3324;50.796;7.228;2023-04-30T05:05:35;0.30;;;0.10;;
6580;SDS011;3324;50.796;7.228;2023-04-30T05:08:00;0.30;;;0.10;;
6580;SDS011;3324;50.796;7.228;2023-04-30T05:10:26;0.30;;;0.10;;
6580;SDS011;3324;50.796;7.228;2023-04-30T05:12:52;0.30;;;0.20;;
6580;SDS011;3324;50.796;7.228;2023-04-30T05:15:17;2.10;;;0.50;;
6580;SDS011;3324;50.796;7.228;2023-04-30T05:17:43;0.30;;;0.20;;
6580;SDS011;3324;50.796;7.228;2023-04-30T05:20:09;0.30;;;0.10;;
6580;SDS011;3324;50.796;7.228;2023-04-30T05:22:36;2.10;;;0.50;;
6580;SDS011;3324;50.796;7.228;2023-04-30T05:25:02;0.30;;;0.20;;
6580;SDS011;3324;50.796;7.228;2023-04-30T05:27:28;0.30;;;0.20;;
6580;SDS011;3324;50.796;7.228;2023-04-30T05:29:53;0.30;;;0.20;;
6580;SDS011;3324;50.796;7.228;2023-04-30T05:32:21;0.30;;;0.20;;
6580;SDS011;3324;50.796;7.228;2023-04-30T05:34:46;0.30;;;0.10;;
6580;SDS011;3324;50.796;7.228;2023-04-30T05:37:12;0.30;;;0.20;;
6580;SDS011;3324;50.796;7.228;2023-04-30T05:39:38;0.30;;;0.10;;
6580;SDS011;3324;50.796;7.228;2023-04-30T05:42:04;0.30;;;0.20;;
6580;SDS011;3324;50.796;7.228;2023-04-30T05:44:29;2.20;;;0.50;;
6580;SDS011;3324;50.796;7.228;2023-04-30T05:46:55;2.10;;;0.50;;
6580;SDS011;3324;50.796;7.228;2023-04-30T05:49:21;0.30;;;0.20;;
6580;SDS011;3324;50.796;7.228;2023-04-30T05:51:46;0.30;;;0.20;;
6580;SDS011;3324;50.796;7.228;2023-04-30T05:54:12;0.30;;;0.20;;
6580;SDS011;3324;50.796;7.228;2023-04-30T05:56:37;2.00;;;0.50;;
6580;SDS011;3324;50.796;7.228;2023-04-30T05:59:03;0.30;;;0.10;;
6580;SDS011;3324;50.796;7.228;2023-04-30T06:01:29;0.30;;;0.20;;
6580;SDS011;3324;50.796;7.228;2023-04-30T06:03:54;0.30;;;0.20;;
6580;SDS011;3324;50.796;7.228;2023-04-30T06:06:20;0.30;;;0.10;;
6580;SDS011;3324;50.796;7.228;2023-04-30T06:08:46;2.00;;;0.50;;
6580;SDS011;3324;50.796;7.228;2023-04-30T06:11:11;2.00;;;0.50;;
6580;SDS011;3324;50.796;7.228;2023-04-30T06:13:38;0.30;;;0.20;;
6580;SDS011;3324;50.796;7.228;2023-04-30T06:16:04;0.30;;;0.20;;
6580;SDS011;3324;50.796;7.228;2023-04-30T06:18:30;0.30;;;0.20;;
6580;SDS011;3324;50.796;7.228;2023-04-30T06:20:56;0.30;;;0.20;;
6580;SDS011;3324;50.796;7.228;2023-04-30T06:23:21;0.30;;;0.20;;
6580;SDS011;3324;50.796;7.228;2023-04-30T06:25:47;0.30;;;0.20;;
6580;SDS011;3324;50.796;7.228;2023-04-30T06:28:12;2.10;;;0.50;;
6580;SDS011;3324;50.796;7.228;2023-04-30T06:30:38;0.30;;;0.20;;
6580;SDS011;3324;50.796;7.228;2023-04-30T06:33:05;0.30;;;0.20;;
6580;SDS011;3324;50.796;7.228;2023-04-30T06:35:30;0.30;;;0.20;;
6580;SDS011;3324;50.796;7.228;2023-04-30T06:37:56;0.30;;;0.20;;
6580;SDS011;3324;50.796;7.228;2023-04-30T06:40:21;0.30;;;0.20;;
6580;SDS011;3324;50.796;7.228;2023-04-30T06:42:47;2.10;;;0.60;;
6580;SDS011;3324;50.796;7.228;2023-04-30T06:45:13;0.30;;;0.20;;
6580;SDS011;3324;50.796;7.228;2023-04-30T06:47:43;2.20;;;0.60;;
6580;SDS011;3324;50.796;7.228;2023-04-30T06:50:10;2.10;;;0.50;;
6580;SDS011;3324;50.796;7.228;2023-04-30T06:52:35;2.10;;;0.60;;
6580;SDS011;3324;50.796;7.228;2023-04-30T06:55:01;0.30;;;0.20;;
6580;SDS011;3324;50.796;7.228;2023-04-30T06:57:27;0.30;;;0.20;;
6580;SDS011;3324;50.796;7.228;2023-04-30T06:59:53;0.30;;;0.20;;
6580;SDS011;3324;50.796;7.228;2023-04-30T07:02:19;0.30;;;0.20;;
6580;SDS011;3324;50.796;7.228;2023-04-30T07:04:44;2.10;;;0.60;;
6580;SDS011;3324;50.796;7.228;2023-04-30T07:07:10;2.10;;;0.60;;
6580;SDS011;3324;50.796;7.228;2023-04-30T07:09:36;0.30;;;0.20;;
6580;SDS011;3324;50.796;7.228;2023-04-30T07:12:02;0.30;;;0.20;;
6580;SDS011;3324;50.796;7.228;2023-04-30T07:14:27;0.30;;;0.30;;
6580;SDS011;3324;50.796;7.228;2023-04-30T07:16:53;0.30;;;0.27;;
6580;SDS011;3324;50.796;7.228;2023-04-30T07:19:20;2.10;;;0.60;;
6580;SDS011;3324;50.796;7.228;2023-04-30T07:21:45;2.10;;;0.70;;
6580;SDS011;3324;50.796;7.228;2023-04-30T07:24:11;0.30;;;0.30;;
6580;SDS011;3324;50.796;7.228;2023-04-30T07:26:36;0.30;;;0.30;;
6580;SDS011;3324;50.796;7.228;2023-04-30T07:29:03;0.50;;;0.50;;
6580;SDS011;3324;50.796;7.228;2023-04-30T07:31:28;0.40;;;0.40;;
6580;SDS011;3324;50.796;7.228;2023-04-30T07:33:54;2.10;;;0.80;;
6580;SDS011;3324;50.796;7.228;2023-04-30T07:36:20;0.30;;;0.30;;
6580;SDS011;3324;50.796;7.228;2023-04-30T07:38:46;0.40;;;0.40;;
6580;SDS011;3324;50.796;7.228;2023-04-30T07:41:12;0.30;;;0.30;;
6580;SDS011;3324;50.796;7.228;2023-04-30T07:43:37;0.30;;;0.30;;
6580;SDS011;3324;50.796;7.228;2023-04-30T07:46:03;0.30;;;0.30;;
6580;SDS011;3324;50.796;7.228;2023-04-30T07:48:29;2.10;;;0.70;;
6580;SDS011;3324;50.796;7.228;2023-04-30T07:50:54;0.40;;;0.40;;
6580;SDS011;3324;50.796;7.228;2023-04-30T07:53:21;0.30;;;0.30;;
6580;SDS011;3324;50.796;7.228;2023-04-30T07:55:47;0.30;;;0.30;;
6580;SDS011;3324;50.796;7.228;2023-04-30T07:58:13;0.30;;;0.30;;
6580;SDS011;3324;50.796;7.228;2023-04-30T08:00:38;2.20;;;0.70;;
6580;SDS011;3324;50.796;7.228;2023-04-30T08:03:04;2.30;;;0.70;;
6580;SDS011;3324;50.796;7.228;2023-04-30T08:05:30;0.40;;;0.40;;
6580;SDS011;3324;50.796;7.228;2023-04-30T08:07:55;0.40;;;0.40;;
6580;SDS011;3324;50.796;7.228;2023-04-30T08:10:21;0.40;;;0.40;;
6580;SDS011;3324;50.796;7.228;2023-04-30T08:12:47;2.30;;;0.70;;
6580;SDS011;3324;50.796;7.228;2023-04-30T08:15:12;0.40;;;0.40;;
6580;SDS011;3324;50.796;7.228;2023-04-30T08:17:38;0.20;;;0.20;;
6580;SDS011;3324;50.796;7.228;2023-04-30T08:20:04;0.30;;;0.20;;
6580;SDS011;3324;50.796;7.228;2023-04-30T08:22:30;0.20;;;0.10;;
6580;SDS011;3324;50.796;7.228;2023-04-30T08:24:56;2.00;;;0.60;;
6580;SDS011;3324;50.796;7.228;2023-04-30T08:27:22;2.00;;;0.60;;
6580;SDS011;3324;50.796;7.228;2023-04-30T08:29:48;0.30;;;0.30;;
6580;SDS011;3324;50.796;7.228;2023-04-30T08:32:13;0.30;;;0.30;;
6580;SDS011;3324;50.796;7.228;2023-04-30T08:34:39;1.80;;;0.60;;
6580;SDS011;3324;50.796;7.228;2023-04-30T08:37:06;2.00;;;0.70;;
6580;SDS011;3324;50.796;7.228;2023-04-30T08:39:31;1.00;;;0.30;;
6580;SDS011;3324;50.796;7.228;2023-04-30T08:41:58;0.30;;;0.30;;
6580;SDS011;3324;50.796;7.228;2023-04-30T08:44:27;2.00;;;0.70;;
6580;SDS011;3324;50.796;7.228;2023-04-30T08:46:54;2.00;;;0.80;;
6580;SDS011;3324;50.796;7.228;2023-04-30T08:49:21;2.10;;;0.60;;
6580;SDS011;3324;50.796;7.228;2023-04-30T08:51:47;2.10;;;1.57;;
6580;SDS011;3324;50.796;7.228;2023-04-30T08:54:13;2.00;;;0.60;;
6580;SDS011;3324;50.796;7.228;2023-04-30T08:56:39;2.00;;;0.60;;
6580;SDS011;3324;50.796;7.228;2023-04-30T08:59:05;0.30;;;0.30;;
6580;SDS011;3324;50.796;7.228;2023-04-30T09:01:32;0.30;;;0.30;;
6580;SDS011;3324;50.796;7.228;2023-04-30T09:03:59;0.40;;;0.40;;
6580;SDS011;3324;50.796;7.228;2023-04-30T09:06:27;0.60;;;0.60;;
6580;SDS011;3324;50.796;7.228;2023-04-30T09:08:52;0.30;;;0.30;;
6580;SDS011;3324;50.796;7.228;2023-04-30T09:11:28;5.70;;;5.40;;
6580;SDS011;3324;50.796;7.228;2023-04-30T09:13:56;2.40;;;2.40;;
6580;SDS011;3324;50.796;7.228;2023-04-30T09:16:24;8.30;;;8.00;;
6580;SDS011;3324;50.796;7.228;2023-04-30T09:18:51;7.20;;;7.10;;
6580;SDS011;3324;50.796;7.228;2023-04-30T09:21:29;9.30;;;9.10;;
6580;SDS011;3324;50.796;7.228;2023-04-30T09:23:57;9.20;;;9.00;;
6580;SDS011;3324;50.796;7.228;2023-04-30T09:26:29;9.20;;;9.00;;
6580;SDS011;3324;50.796;7.228;2023-04-30T09:28:57;9.00;;;8.60;;
6580;SDS011;3324;50.796;7.228;2023-04-30T09:31:23;10.30;;;9.80;;
6580;SDS011;3324;50.796;7.228;2023-04-30T09:33:50;10.20;;;9.70;;
6580;SDS011;3324;50.796;7.228;2023-04-30T09:36:18;8.40;;;8.20;;
6580;SDS011;3324;50.796;7.228;2023-04-30T09:38:44;10.10;;;9.80;;
6580;SDS011;3324;50.796;7.228;2023-04-30T09:41:26;8.00;;;7.90;;
6580;SDS011;3324;50.796;7.228;2023-04-30T09:43:56;9.50;;;9.30;;
6580;SDS011;3324;50.796;7.228;2023-04-30T09:46:29;9.50;;;9.30;;
6580;SDS011;3324;50.796;7.228;2023-04-30T09:48:56;10.30;;;9.80;;
6580;SDS011;3324;50.796;7.228;2023-04-30T09:51:23;9.70;;;9.40;;
6580;SDS011;3324;50.796;7.228;2023-04-30T09:53:49;10.00;;;9.50;;
6580;SDS011;3324;50.796;7.228;2023-04-30T09:56:18;10.40;;;9.90;;
6580;SDS011;3324;50.796;7.228;2023-04-30T09:58:46;9.70;;;9.40;;
6580;SDS011;3324;50.796;7.228;2023-04-30T10:01:16;9.80;;;9.50;;
6580;SDS011;3324;50.796;7.228;2023-04-30T10:03:42;9.90;;;9.60;;
6580;SDS011;3324;50.796;7.228;2023-04-30T10:06:08;9.70;;;9.40;;
6580;SDS011;3324;50.796;7.228;2023-04-30T10:08:40;10.70;;;10.20;;
6580;SDS011;3324;50.796;7.228;2023-04-30T10:11:12;9.80;;;9.50;;
6580;SDS011;3324;50.796;7.228;2023-04-30T10:13:43;10.20;;;9.70;;
6580;SDS011;3324;50.796;7.228;2023-04-30T10:16:35;10.15;;;9.85;;
6580;SDS011;3324;50.796;7.228;2023-04-30T10:19:06;10.10;;;9.80;;
6580;SDS011;3324;50.796;7.228;2023-04-30T10:21:36;9.80;;;9.50;;
6580;SDS011;3324;50.796;7.228;2023-04-30T10:24:07;10.00;;;9.70;;
6580;SDS011;3324;50.796;7.228;2023-04-30T10:26:34;9.50;;;9.20;;
6580;SDS011;3324;50.796;7.228;2023-04-30T10:29:00;10.00;;;9.70;;
6580;SDS011;3324;50.796;7.228;2023-04-30T10:31:27;9.40;;;9.10;;
6580;SDS011;3324;50.796;7.228;2023-04-30T10:36:32;9.10;;;8.70;;
6580;SDS011;3324;50.796;7.228;2023-04-30T10:39:06;8.60;;;8.40;;
6580;SDS011;3324;50.796;7.228;2023-04-30T10:41:32;8.50;;;8.30;;
6580;SDS011;3324;50.796;7.228;2023-04-30T10:44:00;9.70;;;9.40;;
6580;SDS011;3324;50.796;7.228;2023-04-30T10:46:26;9.90;;;9.60;;
6580;SDS011;3324;50.796;7.228;2023-04-30T10:48:52;9.70;;;9.40;;
6580;SDS011;3324;50.796;7.228;2023-04-30T10:51:21;9.63;;;9.32;;
6580;SDS011;3324;50.796;7.228;2023-04-30T10:53:50;10.10;;;9.80;;
6580;SDS011;3324;50.796;7.228;2023-04-30T10:56:30;9.80;;;9.50;;
6580;SDS011;3324;50.796;7.228;2023-04-30T10:59:00;9.70;;;9.40;;
6580;SDS011;3324;50.796;7.228;2023-04-30T11:01:29;9.80;;;9.50;;
6580;SDS011;3324;50.796;7.228;2023-04-30T11:04:07;9.90;;;9.60;;
6580;SDS011;3324;50.796;7.228;2023-04-30T11:09:39;10.40;;;10.00;;
6580;SDS011;3324;50.796;7.228;2023-04-30T11:12:11;11.00;;;10.40;;
6580;SDS011;3324;50.796;7.228;2023-04-30T11:14:44;11.00;;;10.50;;
6580;SDS011;3324;50.796;7.228;2023-04-30T11:17:11;10.40;;;10.00;;
6580;SDS011;3324;50.796;7.228;2023-04-30T11:19:50;10.70;;;10.30;;
6580;SDS011;3324;50.796;7.228;2023-04-30T11:22:17;11.45;;;10.75;;
6580;SDS011;3324;50.796;7.228;2023-04-30T11:24:48;10.90;;;10.40;;
6580;SDS011;3324;50.796;7.228;2023-04-30T11:27:24;11.00;;;10.50;;
6580;SDS011;3324;50.796;7.228;2023-04-30T11:29:51;11.60;;;10.90;;
6580;SDS011;3324;50.796;7.228;2023-04-30T11:32:22;11.50;;;10.80;;
6580;SDS011;3324;50.796;7.228;2023-04-30T11:34:49;10.70;;;10.30;;
6580;SDS011;3324;50.796;7.228;2023-04-30T11:37:18;10.60;;;10.20;;
6580;SDS011;3324;50.796;7.228;2023-04-30T11:39:52;11.57;;;10.88;;
6580;SDS011;3324;50.796;7.228;2023-04-30T11:42:20;10.70;;;10.30;;
6580;SDS011;3324;50.796;7.228;2023-04-30T11:44:46;11.20;;;10.60;;
6580;SDS011;3324;50.796;7.228;2023-04-30T11:47:12;10.80;;;10.30;;
6580;SDS011;3324;50.796;7.228;2023-04-30T11:49:39;11.30;;;10.70;;
6580;SDS011;3324;50.796;7.228;2023-04-30T11:52:05;11.40;;;10.70;;
6580;SDS011;3324;50.796;7.228;2023-04-30T11:54:34;10.70;;;10.30;;
6580;SDS011;3324;50.796;7.228;2023-04-30T11:57:02;11.40;;;10.70;;
6580;SDS011;3324;50.796;7.228;2023-04-30T11:59:28;10.25;;;9.75;;
6580;SDS011;3324;50.796;7.228;2023-04-30T12:01:55;10.40;;;10.00;;
6580;SDS011;3324;50.796;7.228;2023-04-30T12:04:21;11.53;;;10.83;;
6580;SDS011;3324;50.796;7.228;2023-04-30T12:06:47;11.23;;;10.73;;
6580;SDS011;3324;50.796;7.228;2023-04-30T12:09:12;11.65;;;11.05;;
6580;SDS011;3324;50.796;7.228;2023-04-30T12:11:38;11.00;;;10.50;;
6580;SDS011;3324;50.796;7.228;2023-04-30T12:14:08;11.70;;;11.00;;
6580;SDS011;3324;50.796;7.228;2023-04-30T12:16:48;10.80;;;10.30;;
6580;SDS011;3324;50.796;7.228;2023-04-30T12:19:19;11.10;;;10.50;;
6580;SDS011;3324;50.796;7.228;2023-04-30T12:21:46;9.90;;;9.60;;
6580;SDS011;3324;50.796;7.228;2023-04-30T12:24:13;10.50;;;10.10;;
6580;SDS011;3324;50.796;7.228;2023-04-30T12:26:40;10.20;;;9.80;;
6580;SDS011;3324;50.796;7.228;2023-04-30T12:29:11;10.80;;;10.30;;
6580;SDS011;3324;50.796;7.228;2023-04-30T12:31:41;10.90;;;10.40;;
6580;SDS011;3324;50.796;7.228;2023-04-30T12:34:08;10.80;;;10.40;;
6580;SDS011;3324;50.796;7.228;2023-04-30T12:36:35;10.90;;;10.40;;
6580;SDS011;3324;50.796;7.228;2023-04-30T12:39:05;11.10;;;10.60;;
6580;SDS011;3324;50.796;7.228;2023-04-30T12:44:18;12.40;;;11.60;;
6580;SDS011;3324;50.796;7.228;2023-04-30T12:46:45;11.50;;;10.90;;
6580;SDS011;3324;50.796;7.228;2023-04-30T12:49:34;11.90;;;11.30;;
6580;SDS011;3324;50.796;7.228;2023-04-30T12:52:02;11.80;;;11.00;;
6580;SDS011;3324;50.796;7.228;2023-04-30T12:54:31;10.60;;;10.00;;
6580;SDS011;3324;50.796;7.228;2023-04-30T12:56:59;10.40;;;10.00;;
6580;SDS011;3324;50.796;7.228;2023-04-30T12:59:39;10.40;;;10.00;;
6580;SDS011;3324;50.796;7.228;2023-04-30T13:02:23;11.30;;;10.60;;
6580;SDS011;3324;50.796;7.228;2023-04-30T13:04:51;10.10;;;9.80;;
6580;SDS011;3324;50.796;7.228;2023-04-30T13:07:17;10.20;;;9.90;;
6580;SDS011;3324;50.796;7.228;2023-04-30T13:09:43;10.75;;;10.15;;
6580;SDS011;3324;50.796;7.228;2023-04-30T13:12:08;10.00;;;9.60;;
6580;SDS011;3324;50.796;7.228;2023-04-30T13:14:34;10.20;;;9.80;;
6580;SDS011;3324;50.796;7.228;2023-04-30T13:17:00;11.50;;;10.80;;
6580;SDS011;3324;50.796;7.228;2023-04-30T13:19:29;12.00;;;11.20;;
6580;SDS011;3324;50.796;7.228;2023-04-30T13:21:55;11.20;;;10.70;;
6580;SDS011;3324;50.796;7.228;2023-04-30T13:24:22;11.25;;;10.65;;
6580;SDS011;3324;50.796;7.228;2023-04-30T13:26:48;11.10;;;10.60;;
6580;SDS011;3324;50.796;7.228;2023-04-30T13:29:14;11.20;;;10.70;;
6580;SDS011;3324;50.796;7.228;2023-04-30T13:31:39;11.10;;;10.60;;
6580;SDS011;3324;50.796;7.228;2023-04-30T13:34:06;11.85;;;11.15;;
6580;SDS011;3324;50.796;7.228;2023-04-30T13:36:33;11.80;;;11.10;;
6580;SDS011;3324;50.796;7.228;2023-04-30T13:38:59;11.40;;;10.70;;
6580;SDS011;3324;50.796;7.228;2023-04-30T13:41:25;11.90;;;11.20;;
6580;SDS011;3324;50.796;7.228;2023-04-30T13:43:50;11.30;;;10.80;;
6580;SDS011;3324;50.796;7.228;2023-04-30T13:46:16;11.50;;;10.90;;
6580;SDS011;3324;50.796;7.228;2023-04-30T13:48:42;11.80;;;11.10;;
6580;SDS011;3324;50.796;7.228;2023-04-30T13:51:07;11.00;;;10.50;;
6580;SDS011;3324;50.796;7.228;2023-04-30T13:53:33;10.95;;;10.45;;
6580;SDS011;3324;50.796;7.228;2023-04-30T13:56:00;11.00;;;10.50;;
6580;SDS011;3324;50.796;7.228;2023-04-30T13:58:27;11.00;;;10.50;;
6580;SDS011;3324;50.796;7.228;2023-04-30T14:00:53;10.80;;;10.30;;
6580;SDS011;3324;50.796;7.228;2023-04-30T14:03:18;11.70;;;11.00;;
6580;SDS011;3324;50.796;7.228;2023-04-30T14:05:46;11.10;;;10.40;;
6580;SDS011;3324;50.796;7.228;2023-04-30T14:08:12;11.10;;;10.40;;
6580;SDS011;3324;50.796;7.228;2023-04-30T14:10:37;11.03;;;10.53;;
6580;SDS011;3324;50.796;7.228;2023-04-30T14:13:03;10.90;;;10.40;;
6580;SDS011;3324;50.796;7.228;2023-04-30T14:15:29;12.00;;;11.20;;
6580;SDS011;3324;50.796;7.228;2023-04-30T14:17:56;11.00;;;10.50;;
6580;SDS011;3324;50.796;7.228;2023-04-30T14:20:22;11.70;;;11.00;;
6580;SDS011;3324;50.796;7.228;2023-04-30T14:22:49;12.20;;;11.40;;
6580;SDS011;3324;50.796;7.228;2023-04-30T14:25:14;11.40;;;10.80;;
6580;SDS011;3324;50.796;7.228;2023-04-30T14:27:40;11.20;;;10.70;;
6580;SDS011;3324;50.796;7.228;2023-04-30T14:30:06;11.10;;;10.60;;
6580;SDS011;3324;50.796;7.228;2023-04-30T14:32:33;10.70;;;10.30;;
6580;SDS011;3324;50.796;7.228;2023-04-30T14:34:58;11.00;;;10.40;;
6580;SDS011;3324;50.796;7.228;2023-04-30T14:37:24;10.60;;;10.20;;
6580;SDS011;3324;50.796;7.228;2023-04-30T14:39:50;10.90;;;10.40;;
6580;SDS011;3324;50.796;7.228;2023-04-30T14:42:15;11.20;;;10.50;;
6580;SDS011;3324;50.796;7.228;2023-04-30T14:44:41;11.00;;;10.50;;
6580;SDS011;3324;50.796;7.228;2023-04-30T14:47:06;10.90;;;10.40;;
6580;SDS011;3324;50.796;7.228;2023-04-30T14:49:32;11.00;;;10.50;;
6580;SDS011;3324;50.796;7.228;2023-04-30T14:51:58;10.90;;;10.40;;
6580;SDS011;3324;50.796;7.228;2023-04-30T14:54:23;10.60;;;10.20;;
6580;SDS011;3324;50.796;7.228;2023-04-30T14:56:49;10.90;;;10.40;;
6580;SDS011;3324;50.796;7.228;2023-04-30T14:59:15;11.70;;;11.00;;
6580;SDS011;3324;50.796;7.228;2023-04-30T15:01:41;11.00;;;10.50;;
6580;SDS011;3324;50.796;7.228;2023-04-30T15:04:07;10.90;;;10.40;;
6580;SDS011;3324;50.796;7.228;2023-04-30T15:06:33;10.70;;;10.30;;
6580;SDS011;3324;50.796;7.228;2023-04-30T15:08:59;11.60;;;10.90;;
6580;SDS011;3324;50.796;7.228;2023-04-30T15:11:25;11.50;;;10.80;;
6580;SDS011;3324;50.796;7.228;2023-04-30T15:13:51;11.00;;;10.50;;
6580;SDS011;3324;50.796;7.228;2023-04-30T15:16:17;10.90;;;10.40;;
6580;SDS011;3324;50.796;7.228;2023-04-30T15:18:43;10.90;;;10.40;;
6580;SDS011;3324;50.796;7.228;2023-04-30T15:21:09;11.40;;;10.70;;
6580;SDS011;3324;50.796;7.228;2023-04-30T15:23:34;10.80;;;10.40;;
6580;SDS011;3324;50.796;7.228;2023-04-30T15:26:00;10.30;;;9.90;;
6580;SDS011;3324;50.796;7.228;2023-04-30T15:28:27;10.60;;;10.20;;
6580;SDS011;3324;50.796;7.228;2023-04-30T15:30:53;10.90;;;10.40;;
6580;SDS011;3324;50.796;7.228;2023-04-30T15:33:18;10.70;;;10.30;;
6580;SDS011;3324;50.796;7.228;2023-04-30T15:35:44;10.70;;;10.30;;
6580;SDS011;3324;50.796;7.228;2023-04-30T15:38:11;11.30;;;10.60;;
6580;SDS011;3324;50.796;7.228;2023-04-30T15:40:37;10.80;;;10.40;;